Time;durP1;ratioP1;P1;durP2;ratioP2;P2;SDS_P1;SDS_P2;PMS_P1;PMS_P2;Temp;Humidity;BMP_temperature;BMP_pressure;BME280_temperature;BME280_humidity;BME280_pressure;Samples;Min_cycle;Max_cycle;Signal;HPM_P1;HPM_P2
2021/09/13 00:00:37;;;;;;;9.80;8.20;;;19.90;88.10;;;;;;4979704;28;20173;-82
2021/09/13 00:03:02;;;;;;;9.70;8.27;;;20.00;88.10;;;;;;4979892;28;20302;-82
2021/09/13 00:05:28;;;;;;;9.30;8.07;;;20.00;88.10;;;;;;4979307;28;20680;-83
2021/09/13 00:07:55;;;;;;;13.05;8.38;;;20.00;88.20;;;;;;4940058;28;20564;-80
2021/09/13 00:10:20;;;;;;;10.25;8.23;;;19.90;88.20;;;;;;4956208;28;20201;-82
2021/09/13 00:12:46;;;;;;;9.98;8.20;;;20.00;88.00;;;;;;4924142;28;20682;-80
2021/09/13 00:15:12;;;;;;;9.77;7.88;;;20.00;88.00;;;;;;4955902;28;20168;-81
2021/09/13 00:17:38;;;;;;;10.35;8.20;;;19.90;88.00;;;;;;4924178;28;20189;-82
2021/09/13 00:20:04;;;;;;;10.48;8.60;;;20.00;88.10;;;;;;4939927;28;20173;-82
2021/09/13 00:22:30;;;;;;;11.23;7.78;;;19.90;88.20;;;;;;4940464;28;20193;-79
2021/09/13 00:24:57;;;;;;;10.30;8.18;;;19.90;88.10;;;;;;4939651;28;20201;-82
2021/09/13 00:27:23;;;;;;;9.45;8.02;;;19.90;88.10;;;;;;4925106;28;20604;-81
2021/09/13 00:29:48;;;;;;;9.57;8.00;;;19.90;88.20;;;;;;4927750;28;20169;-82
2021/09/13 00:32:14;;;;;;;9.90;8.57;;;19.90;88.10;;;;;;4904965;29;20613;-81
2021/09/13 00:34:40;;;;;;;10.82;8.32;;;19.90;88.10;;;;;;4889806;29;20596;-83
2021/09/13 00:37:06;;;;;;;10.15;8.10;;;19.90;88.10;;;;;;4905365;29;20236;-82
2021/09/13 00:39:32;;;;;;;9.63;8.07;;;19.90;88.10;;;;;;4918895;28;20316;-82
2021/09/13 00:41:58;;;;;;;10.50;8.00;;;19.90;88.10;;;;;;4943281;28;20171;-80
2021/09/13 00:44:24;;;;;;;9.23;7.95;;;19.90;88.10;;;;;;4962502;28;20717;-82
2021/09/13 00:46:50;;;;;;;9.13;7.43;;;19.90;88.10;;;;;;4946333;28;20581;-82
2021/09/13 00:49:16;;;;;;;10.25;8.05;;;20.00;88.20;;;;;;4946315;28;20161;-83
2021/09/13 00:51:42;;;;;;;9.85;7.95;;;20.00;88.30;;;;;;4962273;28;20239;-81
2021/09/13 00:54:07;;;;;;;9.57;7.95;;;19.90;88.30;;;;;;4946113;28;20689;-81
2021/09/13 00:56:33;;;;;;;10.20;8.02;;;19.90;88.20;;;;;;4945987;28;20184;-81
2021/09/13 00:58:59;;;;;;;10.20;8.38;;;19.90;88.30;;;;;;4978178;28;20547;-81
2021/09/13 01:01:25;;;;;;;10.07;8.13;;;19.80;88.40;;;;;;4962044;28;20164;-82
2021/09/13 01:03:53;;;;;;;9.77;8.30;;;19.90;88.50;;;;;;4945602;28;20234;-81
2021/09/13 01:06:19;;;;;;;10.68;8.25;;;19.90;88.40;;;;;;4939643;29;20189;-82
2021/09/13 01:08:44;;;;;;;10.35;8.00;;;19.90;88.50;;;;;;4941682;28;20177;-80
2021/09/13 01:11:10;;;;;;;10.52;8.27;;;19.90;88.50;;;;;;4974541;28;20235;-82
2021/09/13 01:13:36;;;;;;;9.55;7.90;;;20.00;88.50;;;;;;4958552;28;20187;-83
2021/09/13 01:16:04;;;;;;;12.15;8.52;;;19.90;88.50;;;;;;4958889;28;20177;-82
2021/09/13 01:18:30;;;;;;;9.60;8.13;;;19.90;88.50;;;;;;4958468;28;20220;-82
2021/09/13 01:20:56;;;;;;;10.80;8.23;;;19.90;88.40;;;;;;4958194;28;20173;-80
2021/09/13 01:23:27;;;;;;;9.02;7.43;;;19.80;88.30;;;;;;4958283;28;20169;-81
2021/09/13 01:25:54;;;;;;;8.98;7.78;;;19.90;88.50;;;;;;4958081;28;20224;-82
2021/09/13 01:28:19;;;;;;;10.23;7.82;;;19.90;88.50;;;;;;4958353;28;20165;-82
2021/09/13 01:30:45;;;;;;;10.30;7.93;;;19.90;88.50;;;;;;4958081;28;20556;-82
2021/09/13 01:33:11;;;;;;;9.85;8.05;;;19.90;88.50;;;;;;4958140;28;20176;-80
2021/09/13 01:35:37;;;;;;;9.50;7.97;;;19.90;88.50;;;;;;4958471;28;20585;-81
2021/09/13 01:38:03;;;;;;;9.35;8.10;;;19.80;88.40;;;;;;4958380;28;20205;-82
2021/09/13 01:40:29;;;;;;;9.05;7.47;;;19.90;88.40;;;;;;4957817;28;20560;-81
2021/09/13 01:43:02;;;;;;;10.07;8.20;;;19.80;88.30;;;;;;4964924;28;20664;-82
2021/09/13 01:45:28;;;;;;;9.85;8.20;;;19.80;88.40;;;;;;4981360;28;20202;-82
2021/09/13 01:47:54;;;;;;;9.60;7.80;;;19.80;88.40;;;;;;4982036;28;20155;-80
2021/09/13 01:50:20;;;;;;;9.32;7.55;;;19.90;88.50;;;;;;4981339;28;20159;-81
2021/09/13 01:52:46;;;;;;;9.85;7.95;;;19.80;88.30;;;;;;4981468;28;20167;-81
2021/09/13 01:55:12;;;;;;;9.35;7.63;;;19.80;88.40;;;;;;4981692;28;20167;-82
2021/09/13 01:57:37;;;;;;;9.60;8.13;;;19.90;88.60;;;;;;4981041;28;20191;-82
2021/09/13 02:00:05;;;;;;;9.23;7.55;;;19.80;88.60;;;;;;4997231;28;20234;-83
2021/09/13 02:02:30;;;;;;;9.85;7.85;;;19.80;88.50;;;;;;4981224;28;20164;-81
2021/09/13 02:04:56;;;;;;;10.07;7.70;;;19.80;88.50;;;;;;4980623;28;20234;-81
2021/09/13 02:07:22;;;;;;;9.45;7.75;;;19.80;88.50;;;;;;4997204;28;20186;-81
2021/09/13 02:09:52;;;;;;;9.88;7.97;;;19.80;88.50;;;;;;4997236;28;20160;-82
2021/09/13 02:12:18;;;;;;;10.48;7.80;;;19.80;88.50;;;;;;4982266;28;20167;-82
2021/09/13 02:14:44;;;;;;;10.07;8.10;;;19.90;88.50;;;;;;4981308;28;20163;-81
2021/09/13 02:17:10;;;;;;;9.55;7.68;;;19.80;88.60;;;;;;4981155;28;20169;-81
2021/09/13 02:19:36;;;;;;;9.57;7.88;;;19.80;88.60;;;;;;4997047;28;20167;-82
2021/09/13 02:22:01;;;;;;;9.25;7.68;;;19.80;88.50;;;;;;4981127;28;20615;-80
2021/09/13 02:24:27;;;;;;;11.88;7.93;;;19.80;88.40;;;;;;4980814;28;20198;-82
2021/09/13 02:26:53;;;;;;;8.75;7.18;;;19.80;88.40;;;;;;4996868;28;20198;-82
2021/09/13 02:29:19;;;;;;;9.25;7.82;;;19.80;88.30;;;;;;4980699;28;20163;-80
2021/09/13 02:31:44;;;;;;;9.45;7.25;;;19.90;88.50;;;;;;4980644;28;20569;-80
2021/09/13 02:34:10;;;;;;;9.85;7.60;;;19.80;88.40;;;;;;4980978;28;20590;-81
2021/09/13 02:36:36;;;;;;;8.35;7.30;;;19.80;88.40;;;;;;4980699;28;20574;-82
2021/09/13 02:39:02;;;;;;;9.55;7.88;;;19.80;88.40;;;;;;4980621;28;20176;-81
2021/09/13 02:41:28;;;;;;;9.23;7.82;;;19.80;88.30;;;;;;4980247;28;20171;-80
2021/09/13 02:43:57;;;;;;;8.73;7.47;;;19.80;88.40;;;;;;4980699;28;20190;-83
2021/09/13 02:46:23;;;;;;;10.32;8.05;;;19.80;88.20;;;;;;4980906;28;20167;-80
2021/09/13 02:48:49;;;;;;;9.48;8.15;;;19.80;88.20;;;;;;4980496;28;20217;-82
2021/09/13 02:51:14;;;;;;;8.90;7.55;;;19.80;88.40;;;;;;4979844;28;20159;-81
2021/09/13 02:53:40;;;;;;;10.02;8.05;;;19.80;88.10;;;;;;4980374;28;20175;-82
2021/09/13 02:56:06;;;;;;;9.45;7.60;;;19.90;88.20;;;;;;4980437;28;20175;-81
2021/09/13 02:58:32;;;;;;;8.93;7.45;;;19.80;88.00;;;;;;4980276;28;20180;-82
2021/09/13 03:00:58;;;;;;;9.30;7.50;;;19.80;88.10;;;;;;4996263;28;20163;-82
2021/09/13 03:03:23;;;;;;;9.70;7.20;;;19.80;88.20;;;;;;4979807;28;20230;-83
2021/09/13 03:05:49;;;;;;;9.55;7.90;;;19.80;88.00;;;;;;4980328;28;20175;-80
2021/09/13 03:08:15;;;;;;;9.05;7.18;;;19.80;88.10;;;;;;4980168;28;20163;-82
2021/09/13 03:10:41;;;;;;;9.75;7.90;;;19.70;88.10;;;;;;4980386;28;20170;-81
2021/09/13 03:13:07;;;;;;;8.95;7.45;;;19.80;88.10;;;;;;4996201;28;20266;-82
2021/09/13 03:15:33;;;;;;;8.88;7.65;;;19.80;88.00;;;;;;4979986;28;20269;-83
2021/09/13 03:17:58;;;;;;;9.48;7.55;;;19.90;88.10;;;;;;4980176;28;20175;-80
2021/09/13 03:20:24;;;;;;;8.98;7.50;;;19.80;88.00;;;;;;4980000;28;20175;-80
2021/09/13 03:22:50;;;;;;;9.10;7.28;;;19.80;88.00;;;;;;4980174;28;20174;-81
2021/09/13 03:25:16;;;;;;;9.18;7.60;;;19.80;88.10;;;;;;4980447;28;20198;-82
2021/09/13 03:27:42;;;;;;;9.13;7.63;;;19.80;88.00;;;;;;4980047;28;20195;-82
2021/09/13 03:30:08;;;;;;;9.25;7.65;;;19.80;87.90;;;;;;4979945;28;20230;-82
2021/09/13 03:32:34;;;;;;;8.88;7.78;;;19.70;87.80;;;;;;4996078;28;20187;-81
2021/09/13 03:35:00;;;;;;;8.23;7.00;;;19.80;87.90;;;;;;4979771;28;20164;-80
2021/09/13 03:37:26;;;;;;;8.73;7.25;;;19.80;88.00;;;;;;4996337;28;20614;-81
2021/09/13 03:39:51;;;;;;;8.82;7.32;;;19.80;87.80;;;;;;4995888;28;20590;-81
2021/09/13 03:42:17;;;;;;;8.70;7.30;;;19.80;88.10;;;;;;4979953;28;20196;-81
2021/09/13 03:44:43;;;;;;;10.05;7.50;;;19.80;88.00;;;;;;5013280;28;20186;-83
2021/09/13 03:47:09;;;;;;;9.65;7.72;;;19.80;88.20;;;;;;4979896;28;20160;-83
2021/09/13 03:49:35;;;;;;;8.65;7.55;;;19.80;87.90;;;;;;4979800;28;20159;-82
2021/09/13 03:52:01;;;;;;;10.35;8.20;;;19.80;88.20;;;;;;4980126;28;20159;-81
2021/09/13 03:54:26;;;;;;;8.35;7.28;;;19.70;88.10;;;;;;4979412;28;20529;-82
2021/09/13 03:56:52;;;;;;;9.68;7.70;;;19.70;88.00;;;;;;4979874;28;20572;-80
2021/09/13 03:59:18;;;;;;;8.30;7.10;;;19.80;88.00;;;;;;4979696;28;20572;-82
2021/09/13 04:01:45;;;;;;;10.25;8.23;;;19.70;88.00;;;;;;4981722;28;20278;-81
2021/09/13 04:04:13;;;;;;;9.00;7.50;;;19.70;88.10;;;;;;4983592;28;20227;-81
2021/09/13 04:06:44;;;;;;;9.48;7.53;;;19.80;88.20;;;;;;4983688;28;20163;-82
2021/09/13 04:11:55;;;;;;;8.55;7.10;;;19.70;88.30;;;;;;5002302;28;20213;-82
2021/09/13 04:14:22;;;;;;;8.07;6.95;;;19.70;88.10;;;;;;4983311;28;20709;-83
2021/09/13 04:16:48;;;;;;;8.60;6.90;;;19.70;87.90;;;;;;4983335;28;20181;-82
2021/09/13 04:19:14;;;;;;;8.95;7.18;;;19.80;88.00;;;;;;4999361;28;20246;-82
2021/09/13 04:21:40;;;;;;;9.30;7.85;;;19.80;88.00;;;;;;4983125;28;20656;-81
2021/09/13 04:24:06;;;;;;;7.90;7.07;;;19.70;88.20;;;;;;4983127;28;20298;-83
2021/09/13 04:26:32;;;;;;;8.75;6.97;;;19.70;87.30;;;;;;4999528;28;20195;-82
2021/09/13 04:28:58;;;;;;;8.35;6.85;;;19.70;86.50;;;;;;4983092;28;20167;-82
2021/09/13 04:31:24;;;;;;;9.30;7.20;;;19.70;83.20;;;;;;4983395;28;20682;-82
2021/09/13 04:33:51;;;;;;;7.18;6.28;;;19.70;83.60;;;;;;4998854;28;20648;-83
2021/09/13 04:36:17;;;;;;;7.93;6.20;;;19.80;83.60;;;;;;4983132;28;20214;-81
2021/09/13 04:38:43;;;;;;;7.57;5.70;;;19.70;79.00;;;;;;4982974;28;20527;-82
2021/09/13 04:41:09;;;;;;;6.78;5.70;;;19.70;79.00;;;;;;5001908;28;20173;-82
2021/09/13 04:43:35;;;;;;;7.07;5.60;;;19.70;78.70;;;;;;4994696;28;20163;-82
2021/09/13 04:46:01;;;;;;;7.28;5.82;;;19.70;77.80;;;;;;4966601;28;20246;-81
2021/09/13 04:48:26;;;;;;;7.15;5.93;;;19.70;77.70;;;;;;4966495;28;20163;-82
2021/09/13 04:50:52;;;;;;;7.85;5.85;;;19.70;78.50;;;;;;5015304;28;20215;-83
2021/09/13 04:53:19;;;;;;;7.32;5.72;;;19.60;77.80;;;;;;4981807;28;20159;-80
2021/09/13 04:55:45;;;;;;;6.97;5.40;;;19.60;77.60;;;;;;4998511;28;20290;-81
2021/09/13 04:58:11;;;;;;;7.07;5.00;;;19.70;76.10;;;;;;4966826;28;20168;-80
2021/09/13 05:00:37;;;;;;;5.90;5.30;;;19.60;76.50;;;;;;4981971;28;20178;-82
2021/09/13 05:03:03;;;;;;;6.10;5.15;;;19.70;76.10;;;;;;4966324;28;20265;-81
2021/09/13 05:05:29;;;;;;;6.20;5.13;;;19.60;76.10;;;;;;4998284;28;20191;-82
2021/09/13 05:07:54;;;;;;;7.22;5.35;;;19.60;76.10;;;;;;4982043;28;20164;-81
2021/09/13 05:10:20;;;;;;;5.95;5.00;;;19.60;75.20;;;;;;4995029;28;20532;-83
2021/09/13 05:12:46;;;;;;;5.95;5.32;;;19.70;75.60;;;;;;5034798;28;20545;-82
2021/09/13 05:15:12;;;;;;;5.53;4.75;;;19.60;75.00;;;;;;5001255;28;20226;-82
2021/09/13 05:17:37;;;;;;;6.30;5.53;;;19.60;74.10;;;;;;5001456;28;20190;-81
2021/09/13 05:20:04;;;;;;;5.70;4.65;;;19.60;75.80;;;;;;5002011;28;20189;-82
2021/09/13 05:22:30;;;;;;;5.78;4.78;;;19.60;75.00;;;;;;5001539;28;20166;-82
2021/09/13 05:24:55;;;;;;;6.03;5.03;;;19.60;74.90;;;;;;5001452;28;20186;-80
2021/09/13 05:27:21;;;;;;;5.97;4.80;;;19.60;73.70;;;;;;5001782;28;20193;-82
2021/09/13 05:29:47;;;;;;;6.03;5.25;;;19.60;73.60;;;;;;5017430;28;20159;-81
2021/09/13 05:32:13;;;;;;;5.07;4.57;;;19.60;73.10;;;;;;5017371;28;20159;-82
2021/09/13 05:34:38;;;;;;;5.68;4.78;;;19.70;72.80;;;;;;5001027;28;20170;-81
2021/09/13 05:37:04;;;;;;;6.47;5.00;;;19.70;71.80;;;;;;5000874;28;20163;-81
2021/09/13 05:39:30;;;;;;;5.65;4.60;;;19.70;72.30;;;;;;5017616;28;20163;-81
2021/09/13 05:41:55;;;;;;;5.82;5.07;;;19.70;72.30;;;;;;5034938;28;20165;-81
2021/09/13 05:44:21;;;;;;;5.88;5.28;;;19.70;71.00;;;;;;4984815;28;20199;-81
2021/09/13 05:46:46;;;;;;;5.25;4.45;;;19.70;71.80;;;;;;4981099;28;20242;-81
2021/09/13 05:49:12;;;;;;;6.05;5.20;;;19.70;69.60;;;;;;4981655;28;20164;-81
2021/09/13 05:51:41;;;;;;;6.82;4.85;;;19.70;69.60;;;;;;4997462;28;20576;-83
2021/09/13 05:54:07;;;;;;;5.68;4.88;;;19.70;69.00;;;;;;4982226;28;20171;-82
2021/09/13 05:56:32;;;;;;;5.18;4.50;;;19.70;69.40;;;;;;4997915;28;20159;-82
2021/09/13 05:58:58;;;;;;;6.07;4.90;;;19.70;68.40;;;;;;4981280;28;20167;-82
2021/09/13 06:01:24;;;;;;;6.13;5.03;;;19.70;68.40;;;;;;4997362;28;20570;-82
2021/09/13 06:03:52;;;;;;;6.32;5.00;;;19.70;68.70;;;;;;4996584;28;20565;-81
2021/09/13 06:06:18;;;;;;;5.40;4.75;;;19.70;68.80;;;;;;5014307;28;20530;-81
2021/09/13 06:08:43;;;;;;;5.47;4.47;;;19.70;69.20;;;;;;4997191;28;20159;-82
2021/09/13 06:11:12;;;;;;;4.97;4.47;;;19.70;67.00;;;;;;5017351;28;20286;-80
2021/09/13 06:13:40;;;;;;;4.93;3.90;;;19.70;68.00;;;;;;5018357;28;20155;-82
2021/09/13 06:16:09;;;;;;;4.38;3.72;;;19.70;66.70;;;;;;5001396;28;20305;-82
2021/09/13 06:18:35;;;;;;;4.35;3.45;;;19.70;65.40;;;;;;5002138;28;20173;-81
2021/09/13 06:21:01;;;;;;;4.40;3.28;;;19.80;65.00;;;;;;5003248;28;20529;-82
2021/09/13 06:27:11;;;;;;;4.47;3.83;;;19.80;65.50;;;;;;4909599;29;20202;-89
2021/09/13 06:29:37;;;;;;;5.03;3.60;;;19.70;65.00;;;;;;4921946;29;20205;-89
2021/09/13 06:32:27;;;;;;;4.90;4.10;;;19.80;65.10;;;;;;4923779;29;20196;-87
2021/09/13 06:34:52;;;;;;;4.63;3.75;;;19.80;64.80;;;;;;4907909;29;20725;-87
2021/09/13 06:37:22;;;;;;;6.28;4.10;;;19.80;64.80;;;;;;4902209;29;20191;-88
2021/09/13 06:39:50;;;;;;;4.05;3.35;;;19.80;65.40;;;;;;4917737;29;20190;-87
2021/09/13 06:42:22;;;;;;;5.20;4.00;;;19.80;64.30;;;;;;4917029;29;20181;-87
2021/09/13 06:44:49;;;;;;;4.80;4.05;;;19.90;65.20;;;;;;4917207;29;20195;-86
2021/09/13 06:47:43;;;;;;;4.63;3.45;;;19.80;64.30;;;;;;4945050;29;20170;-88
2021/09/13 06:50:20;;;;;;;4.80;4.22;;;19.80;64.80;;;;;;4937416;29;20638;-88
2021/09/13 06:52:47;;;;;;;5.80;3.50;;;19.80;65.20;;;;;;4938962;29;20188;-85
2021/09/13 06:55:14;;;;;;;7.18;4.07;;;19.80;64.90;;;;;;4924706;29;20190;-84
2021/09/13 06:57:40;;;;;;;5.03;3.90;;;19.80;64.90;;;;;;4925585;29;20205;-84
2021/09/13 07:00:08;;;;;;;4.72;4.18;;;19.90;65.40;;;;;;4925188;29;20193;-83
2021/09/13 07:02:36;;;;;;;6.43;3.97;;;19.90;64.70;;;;;;4949474;28;20676;-81
2021/09/13 07:05:02;;;;;;;5.28;3.75;;;20.00;63.70;;;;;;5005789;28;20223;-83
2021/09/13 07:07:29;;;;;;;6.10;3.95;;;20.00;63.80;;;;;;4973555;28;20210;-81
2021/09/13 07:09:54;;;;;;;3.90;3.35;;;20.00;63.80;;;;;;4992504;28;20227;-81
2021/09/13 07:12:21;;;;;;;4.88;4.30;;;20.00;63.50;;;;;;5009345;28;20183;-81
2021/09/13 07:14:54;;;;;;;4.35;3.83;;;20.00;64.70;;;;;;4992209;28;20168;-83
2021/09/13 07:17:20;;;;;;;5.05;4.05;;;20.00;63.30;;;;;;5007194;28;20271;-85
2021/09/13 07:19:46;;;;;;;6.20;4.22;;;19.90;64.10;;;;;;5023026;28;20572;-81
2021/09/13 07:22:13;;;;;;;4.25;3.40;;;19.80;64.40;;;;;;4991171;28;20222;-82
2021/09/13 07:24:42;;;;;;;6.40;4.55;;;19.90;64.10;;;;;;5004443;28;20214;-85
2021/09/13 07:27:08;;;;;;;4.78;3.85;;;19.90;65.00;;;;;;5015050;28;20183;-84
2021/09/13 07:29:34;;;;;;;4.30;3.90;;;19.90;64.20;;;;;;4989114;28;20175;-86
2021/09/13 07:32:16;;;;;;;4.28;3.75;;;19.90;64.60;;;;;;4987821;28;20637;-86
2021/09/13 07:34:50;;;;;;;4.72;4.13;;;19.90;63.80;;;;;;4967150;28;20206;-86
2021/09/13 07:37:29;;;;;;;5.45;4.40;;;20.00;63.80;;;;;;4966562;28;20221;-85
2021/09/13 07:40:17;;;;;;;5.38;3.95;;;20.00;63.60;;;;;;4989765;28;20175;-85
2021/09/13 07:42:53;;;;;;;4.50;3.92;;;19.90;63.40;;;;;;4978364;28;20230;-84
2021/09/13 07:45:24;;;;;;;4.25;3.80;;;20.00;62.50;;;;;;4954197;28;20192;-85
2021/09/13 07:48:27;;;;;;;;;;;;;;;;;;;;;
2021/09/13 07:50:54;;;;;;;4.53;3.45;;;20.00;63.30;;;;;;4956542;29;20260;-84
2021/09/13 07:53:20;;;;;;;5.45;3.83;;;19.90;62.50;;;;;;4933402;29;20177;-84
2021/09/13 07:55:46;;;;;;;4.75;3.80;;;20.00;62.40;;;;;;4946184;29;20244;-84
2021/09/13 07:58:14;;;;;;;3.42;3.00;;;20.00;62.00;;;;;;4960285;29;20275;-83
2021/09/13 08:00:39;;;;;;;4.15;3.75;;;20.00;62.00;;;;;;4926971;29;20275;-84
2021/09/13 08:03:05;;;;;;;4.53;3.60;;;20.00;61.80;;;;;;4926774;28;20227;-83
2021/09/13 08:05:31;;;;;;;4.93;3.58;;;20.10;61.90;;;;;;4918246;29;20202;-83
2021/09/13 08:07:57;;;;;;;4.28;3.40;;;20.10;61.60;;;;;;4919862;29;20249;-84
2021/09/13 08:10:24;;;;;;;5.78;3.75;;;20.00;61.00;;;;;;4919440;29;20196;-84
2021/09/13 08:12:55;;;;;;;3.75;3.30;;;20.10;61.90;;;;;;4943431;29;20265;-83
2021/09/13 08:15:23;;;;;;;3.92;3.13;;;20.10;61.60;;;;;;4930072;29;20209;-82
2021/09/13 08:17:53;;;;;;;4.05;3.50;;;20.20;61.00;;;;;;4930421;29;20181;-84
2021/09/13 08:20:18;;;;;;;3.47;3.17;;;20.20;61.20;;;;;;4932890;29;20170;-83
2021/09/13 08:22:45;;;;;;;4.75;3.38;;;20.20;60.90;;;;;;4925778;29;20262;-83
2021/09/13 08:25:13;;;;;;;3.75;3.13;;;20.20;60.60;;;;;;4910373;29;20220;-84
2021/09/13 08:27:39;;;;;;;4.25;3.10;;;20.30;60.10;;;;;;4916472;29;20186;-84
2021/09/13 08:30:05;;;;;;;4.70;2.90;;;20.30;60.30;;;;;;4907657;29;20285;-83
2021/09/13 08:32:34;;;;;;;5.13;2.90;;;20.30;59.60;;;;;;4892955;29;20182;-83
2021/09/13 08:35:01;;;;;;;3.20;2.88;;;20.30;60.10;;;;;;4894254;29;20199;-83
2021/09/13 08:37:30;;;;;;;3.20;2.70;;;20.20;59.80;;;;;;4893653;29;20219;-84
2021/09/13 08:39:59;;;;;;;4.45;3.15;;;20.20;60.00;;;;;;4896223;29;20183;-82
2021/09/13 08:42:26;;;;;;;3.47;2.80;;;20.30;59.70;;;;;;4895444;29;20214;-83
2021/09/13 08:44:57;;;;;;;3.65;2.90;;;20.30;59.90;;;;;;4896140;29;20265;-84
2021/09/13 08:47:37;;;;;;;3.20;2.50;;;20.40;59.50;;;;;;4892076;29;20166;-84
2021/09/13 08:50:22;;;;;;;3.85;3.30;;;20.40;59.50;;;;;;4916376;29;20293;-81
2021/09/13 08:53:04;;;;;;;3.63;2.80;;;20.30;60.10;;;;;;4920106;28;20264;-82
2021/09/13 08:55:50;;;;;;;5.72;3.17;;;20.30;60.00;;;;;;4958340;28;20189;-84
2021/09/13 08:58:22;;;;;;;3.05;2.72;;;20.20;60.90;;;;;;4935492;29;20197;-84
2021/09/13 09:00:58;;;;;;;4.22;3.03;;;20.20;59.80;;;;;;4917926;29;20194;-84
2021/09/13 09:03:39;;;;;;;3.33;2.85;;;20.20;60.10;;;;;;4899933;29;20328;-84
2021/09/13 09:06:36;;;;;;;6.40;2.83;;;20.20;59.50;;;;;;4909387;29;20179;-84
2021/09/13 09:10:10;;;;;;;;;;;;;;;;;;;;;
2021/09/13 09:19:39;;;;;;;6.13;2.95;;;20.30;59.10;;;;;;4870724;29;20222;-85
2021/09/13 09:22:25;;;;;;;3.33;2.90;;;20.40;59.60;;;;;;4869163;29;20278;-84
2021/09/13 09:24:56;;;;;;;5.15;3.08;;;20.30;59.00;;;;;;4868601;29;20220;-85
2021/09/13 09:27:22;;;;;;;3.22;2.80;;;20.20;59.30;;;;;;4867547;29;20242;-84
2021/09/13 09:29:48;;;;;;;3.13;2.63;;;20.30;58.80;;;;;;4903013;29;20187;-84
2021/09/13 09:32:27;;;;;;;3.25;2.35;;;20.30;58.70;;;;;;4913389;29;20194;-85
2021/09/13 09:34:53;;;;;;;3.55;2.80;;;20.30;58.50;;;;;;4913562;29;20186;-85
2021/09/13 09:37:25;;;;;;;4.15;3.03;;;20.40;58.40;;;;;;4931427;28;20185;-84
2021/09/13 09:39:56;;;;;;;3.42;2.90;;;20.30;58.60;;;;;;4955611;28;20225;-85
2021/09/13 09:42:28;;;;;;;6.15;3.08;;;20.30;58.70;;;;;;4953199;28;20169;-85
2021/09/13 09:45:00;;;;;;;4.00;2.72;;;20.30;59.00;;;;;;4955777;28;20216;-85
2021/09/13 09:47:29;;;;;;;4.93;2.53;;;20.30;58.70;;;;;;4969456;28;20184;-85
2021/09/13 09:49:59;;;;;;;2.97;2.65;;;20.30;57.90;;;;;;4981805;28;20179;-84
2021/09/13 09:52:31;;;;;;;3.70;2.88;;;20.30;58.30;;;;;;4998268;28;20155;-84
2021/09/13 09:55:19;;;;;;;3.17;2.70;;;20.30;58.30;;;;;;4983191;28;20183;-85
2021/09/13 09:58:05;;;;;;;3.03;2.60;;;20.20;58.40;;;;;;4995535;28;20277;-85
2021/09/13 10:00:32;;;;;;;3.67;2.83;;;20.20;58.20;;;;;;4980478;28;20186;-84
2021/09/13 10:03:00;;;;;;;2.92;2.60;;;20.20;58.30;;;;;;4979370;28;20180;-85
2021/09/13 10:05:51;;;;;;;3.45;2.80;;;20.20;57.70;;;;;;4949510;28;20244;-85
2021/09/13 10:08:26;;;;;;;3.03;2.72;;;20.30;57.50;;;;;;4999870;28;20180;-84
2021/09/13 10:10:53;;;;;;;3.10;2.70;;;20.30;57.50;;;;;;4960143;29;20185;-84
2021/09/13 10:13:20;;;;;;;4.68;2.38;;;20.30;57.80;;;;;;4944530;29;20196;-84
2021/09/13 10:15:47;;;;;;;3.63;2.80;;;20.30;57.30;;;;;;4942174;29;20216;-85
2021/09/13 10:18:14;;;;;;;4.45;2.60;;;20.20;57.30;;;;;;4957398;29;20185;-84
2021/09/13 10:20:43;;;;;;;3.67;2.22;;;20.20;57.40;;;;;;4941434;29;20591;-84
2021/09/13 10:23:17;;;;;;;3.17;2.60;;;20.20;57.20;;;;;;4959013;29;20196;-84
2021/09/13 10:25:59;;;;;;;4.00;2.70;;;20.20;57.50;;;;;;4976558;29;20309;-83
2021/09/13 10:28:29;;;;;;;2.95;2.55;;;20.20;56.80;;;;;;4961250;29;20181;-84
2021/09/13 10:31:01;;;;;;;2.55;2.35;;;20.20;56.90;;;;;;4957174;29;20186;-84
2021/09/13 10:33:30;;;;;;;2.55;2.28;;;20.30;57.00;;;;;;4957816;29;20182;-84
2021/09/13 10:36:01;;;;;;;3.05;2.42;;;20.20;56.40;;;;;;4941550;29;20190;-84
2021/09/13 10:38:46;;;;;;;2.95;2.60;;;20.20;56.70;;;;;;4954425;29;20213;-84
2021/09/13 10:41:56;;;;;;;3.05;2.35;;;20.30;56.90;;;;;;4943960;29;20337;-84
2021/09/13 10:44:33;;;;;;;3.55;2.47;;;20.20;56.70;;;;;;4941733;29;20218;-84
2021/09/13 10:47:03;;;;;;;2.90;2.28;;;20.20;56.70;;;;;;4972778;29;20166;-84
2021/09/13 10:50:04;;;;;;;2.90;2.60;;;20.20;57.00;;;;;;4940929;29;20212;-84
2021/09/13 10:52:42;;;;;;;2.17;1.98;;;20.20;56.80;;;;;;4941255;29;20182;-84
2021/09/13 10:55:24;;;;;;;3.20;2.22;;;20.20;56.60;;;;;;4919530;29;20183;-83
2021/09/13 10:58:02;;;;;;;2.30;1.98;;;20.20;56.60;;;;;;4919314;29;20203;-84
2021/09/13 11:00:50;;;;;;;3.00;2.55;;;20.10;56.70;;;;;;4902588;29;20235;-83
2021/09/13 11:03:32;;;;;;;2.50;2.30;;;20.10;56.20;;;;;;4898781;29;20227;-83
2021/09/13 11:06:25;;;;;;;2.72;1.75;;;20.20;56.00;;;;;;4884350;29;20234;-83
2021/09/13 11:08:55;;;;;;;2.40;2.20;;;20.20;56.00;;;;;;4884217;29;20184;-81
2021/09/13 11:11:26;;;;;;;2.72;2.20;;;20.20;56.20;;;;;;4882122;29;20183;-82
2021/09/13 11:14:14;;;;;;;2.53;2.00;;;20.20;56.00;;;;;;4897572;29;20212;-83
2021/09/13 11:16:45;;;;;;;2.30;1.88;;;20.20;56.00;;;;;;4913042;29;20195;-83
2021/09/13 11:19:17;;;;;;;3.25;2.00;;;20.20;55.90;;;;;;4934178;29;20197;-83
2021/09/13 11:21:46;;;;;;;2.30;2.10;;;20.20;56.10;;;;;;4919848;29;20175;-82
2021/09/13 11:24:20;;;;;;;2.35;2.08;;;20.20;56.00;;;;;;4935022;29;20214;-83
2021/09/13 11:26:52;;;;;;;2.95;2.03;;;20.10;56.40;;;;;;4964952;29;20188;-83
2021/09/13 11:29:22;;;;;;;2.28;2.05;;;20.20;55.90;;;;;;4958095;29;20188;-82
2021/09/13 11:31:50;;;;;;;2.10;1.90;;;20.10;55.60;;;;;;4957753;29;20165;-83
2021/09/13 11:34:20;;;;;;;2.47;2.08;;;20.20;55.60;;;;;;4978374;28;20180;-82
2021/09/13 11:36:53;;;;;;;2.42;2.15;;;20.20;55.50;;;;;;4980977;28;20634;-82
2021/09/13 11:39:22;;;;;;;2.90;1.98;;;20.20;55.30;;;;;;4980562;28;20199;-84
2021/09/13 11:41:55;;;;;;;2.92;2.10;;;20.20;55.40;;;;;;4980632;28;20168;-85
2021/09/13 11:44:24;;;;;;;3.20;2.00;;;20.10;55.40;;;;;;4960371;28;20722;-83
2021/09/13 11:46:51;;;;;;;2.10;1.90;;;20.10;55.10;;;;;;4975574;28;20196;-84
2021/09/13 11:49:37;;;;;;;2.22;1.90;;;20.20;55.00;;;;;;4977186;28;20187;-85
2021/09/13 12:42:57;;;;;;;1.85;1.67;;;20.10;54.30;;;;;;6003859;23;20244;-84
2021/09/13 12:45:26;;;;;;;2.30;1.90;;;20.20;54.30;;;;;;4908065;29;20191;-83
2021/09/13 12:47:55;;;;;;;2.33;1.42;;;20.20;54.20;;;;;;4911384;29;20170;-83
2021/09/13 12:50:29;;;;;;;2.25;1.90;;;20.20;54.30;;;;;;4908232;29;20167;-84
2021/09/13 12:52:57;;;;;;;2.67;1.98;;;20.20;54.30;;;;;;4911040;29;20222;-84
2021/09/13 13:01:16;;;;;;;1.85;1.50;;;20.20;53.90;;;;;;5322249;23;20273;-83
2021/09/13 13:09:42;;;;;;;2.03;1.63;;;20.20;53.90;;;;;;5690954;23;20446;-84
2021/09/13 13:18:47;;;;;;;2.42;1.77;;;20.10;53.70;;;;;;5226434;23;20251;-83
2021/09/13 13:23:56;;;;;;;1.90;1.70;;;20.10;53.50;;;;;;5417197;23;20365;-82
2021/09/13 13:29:04;;;;;;;2.58;1.50;;;20.10;53.50;;;;;;5181148;23;20229;-83
2021/09/13 13:34:07;;;;;;;1.73;1.55;;;20.10;53.50;;;;;;4954330;23;20225;-83
2021/09/13 13:36:45;;;;;;;1.70;1.52;;;20.10;53.20;;;;;;4907681;28;20191;-83
2021/09/13 13:39:21;;;;;;;2.13;1.58;;;20.20;53.10;;;;;;4942635;28;20178;-83
2021/09/13 13:42:04;;;;;;;1.58;1.33;;;20.10;53.30;;;;;;4896522;29;20253;-83
2021/09/13 14:23:27;;;;;;;1.55;1.38;;;20.20;52.50;;;;;;5293923;23;20267;-83
2021/09/13 14:26:01;;;;;;;1.48;1.30;;;20.10;52.50;;;;;;5073292;23;20242;-83
2021/09/13 16:39:57;;;;;;;1.17;0.90;;;20.10;50.90;;;;;;5105534;23;20289;-86
2021/09/13 16:42:25;;;;;;;1.25;1.15;;;20.00;50.80;;;;;;4879948;29;20175;-83
2021/09/13 16:44:52;;;;;;;0.93;0.90;;;20.10;50.90;;;;;;4891492;29;20574;-86
2021/09/13 16:47:18;;;;;;;1.98;0.90;;;20.10;50.90;;;;;;4881742;29;20203;-88
2021/09/13 16:49:44;;;;;;;0.93;0.80;;;20.20;50.80;;;;;;4902913;29;20174;-85
2021/09/13 16:52:10;;;;;;;0.82;0.82;;;20.20;50.70;;;;;;4902475;29;20206;-86
2021/09/13 16:54:39;;;;;;;1.10;0.90;;;20.20;50.70;;;;;;4896433;29;20187;-84
2021/09/13 16:57:05;;;;;;;1.13;1.00;;;20.10;50.70;;;;;;4903629;29;20170;-84
2021/09/13 16:59:39;;;;;;;1.90;0.95;;;20.10;50.80;;;;;;4927677;29;20198;-87
2021/09/13 17:02:05;;;;;;;2.75;1.00;;;20.10;50.70;;;;;;4892873;29;20186;-84
2021/09/13 17:04:32;;;;;;;1.10;1.00;;;20.10;50.70;;;;;;4888350;29;20765;-83
2021/09/13 17:06:57;;;;;;;2.92;0.95;;;20.20;50.90;;;;;;4919828;29;20183;-85
2021/09/13 17:09:23;;;;;;;5.40;1.10;;;20.10;51.00;;;;;;4878389;29;20182;-83
2021/09/13 17:11:49;;;;;;;6.25;0.90;;;20.10;51.40;;;;;;4919427;29;20693;-85
2021/09/13 17:14:15;;;;;;;6.03;1.23;;;20.00;51.40;;;;;;4877710;29;20175;-85
2021/09/13 17:16:40;;;;;;;7.05;1.30;;;20.00;51.60;;;;;;4888988;29;20190;-84
2021/09/13 17:19:06;;;;;;;5.82;1.30;;;20.00;51.60;;;;;;4875822;29;20540;-87